Time;durP1;ratioP1;P1;durP2;ratioP2;P2;SDS_P1;SDS_P2;PMS_P1;PMS_P2;Temp;Humidity;BMP_temperature;BMP_pressure;BME280_temperature;BME280_humidity;BME280_pressure;Samples;Min_cycle;Max_cycle;Signal;HPM_P1;HPM_P2
2023/11/25 00:00:47;;;;;;;23.42;16.77;;;15.70;95.90;;;;;;5093897;28;20032;-79
2023/11/25 00:03:13;;;;;;;27.08;17.20;;;15.60;95.90;;;;;;5094082;28;20397;-79
2023/11/25 00:05:39;;;;;;;28.23;18.30;;;15.60;96.00;;;;;;5093870;28;20105;-78
2023/11/25 00:08:05;;;;;;;29.05;19.23;;;15.50;96.00;;;;;;5093467;28;20115;-80
2023/11/25 00:10:31;;;;;;;31.13;19.02;;;15.40;96.10;;;;;;5093913;28;20063;-79
2023/11/25 00:12:58;;;;;;;26.67;18.67;;;15.40;96.20;;;;;;5093514;28;20082;-79
2023/11/25 00:15:24;;;;;;;26.08;20.02;;;15.40;96.20;;;;;;5093288;28;20032;-80
2023/11/25 00:17:53;;;;;;;29.38;21.60;;;15.40;96.20;;;;;;5093264;28;20482;-78
2023/11/25 00:20:20;;;;;;;30.88;21.85;;;15.40;96.30;;;;;;5093371;28;20028;-76
2023/11/25 00:22:46;;;;;;;29.17;22.25;;;15.30;96.30;;;;;;5092025;28;20072;-78
2023/11/25 00:25:12;;;;;;;31.08;22.55;;;15.40;96.40;;;;;;5093485;28;20071;-78
2023/11/25 00:27:38;;;;;;;29.27;20.75;;;15.30;96.20;;;;;;5093291;28;20401;-78
2023/11/25 00:30:05;;;;;;;31.05;22.55;;;15.30;96.30;;;;;;5093152;28;20036;-78
2023/11/25 00:32:36;;;;;;;30.40;21.13;;;15.40;96.40;;;;;;5091940;28;20032;-78
2023/11/25 00:35:03;;;;;;;31.00;22.27;;;15.40;96.50;;;;;;5092965;28;20036;-78
2023/11/25 00:37:31;;;;;;;31.10;21.02;;;15.40;96.40;;;;;;5093072;28;20415;-78
2023/11/25 00:39:59;;;;;;;26.52;20.90;;;15.40;96.50;;;;;;5093122;28;20485;-77
2023/11/25 00:42:27;;;;;;;27.10;20.10;;;15.30;96.40;;;;;;5092858;28;20035;-77
2023/11/25 00:44:53;;;;;;;28.15;20.58;;;15.30;96.60;;;;;;5092781;28;20047;-78
2023/11/25 00:47:19;;;;;;;28.33;20.70;;;15.30;96.60;;;;;;5093056;28;20028;-78
2023/11/25 00:49:48;;;;;;;27.70;20.67;;;15.30;96.60;;;;;;5092135;28;20067;-77
2023/11/25 00:52:14;;;;;;;30.80;21.48;;;15.30;96.60;;;;;;5092428;28;20028;-77
2023/11/25 00:54:40;;;;;;;25.65;20.85;;;15.30;96.70;;;;;;5092664;28;20073;-78
2023/11/25 00:57:06;;;;;;;28.02;21.13;;;15.20;96.70;;;;;;5092754;28;20040;-77
2023/11/25 00:59:32;;;;;;;28.25;21.50;;;15.20;96.80;;;;;;5092584;28;20504;-79
2023/11/25 01:01:58;;;;;;;27.58;20.77;;;15.20;96.80;;;;;;5092771;28;20057;-77
2023/11/25 01:04:24;;;;;;;28.45;21.23;;;15.20;96.90;;;;;;5092534;28;20040;-79
2023/11/25 01:06:49;;;;;;;30.50;21.83;;;15.20;96.90;;;;;;5091159;28;20089;-79
2023/11/25 01:09:16;;;;;;;28.83;20.13;;;15.20;96.80;;;;;;5092693;28;20039;-79
2023/11/25 01:11:43;;;;;;;27.85;19.20;;;15.30;97.00;;;;;;5092576;28;20394;-79
2023/11/25 01:14:09;;;;;;;27.67;18.90;;;15.30;97.00;;;;;;5092646;28;20050;-77
2023/11/25 01:16:35;;;;;;;25.45;18.73;;;15.30;97.00;;;;;;5092572;28;20505;-77
2023/11/25 01:19:01;;;;;;;27.83;18.67;;;15.20;96.90;;;;;;5092616;28;20040;-78
2023/11/25 01:21:26;;;;;;;26.95;19.52;;;15.30;97.00;;;;;;5092334;28;20142;-77
2023/11/25 01:23:52;;;;;;;25.20;18.55;;;15.20;96.90;;;;;;5091123;28;20139;-78
2023/11/25 01:26:18;;;;;;;25.00;18.88;;;15.30;97.00;;;;;;5092333;28;20028;-78
2023/11/25 01:28:44;;;;;;;25.67;19.70;;;15.20;96.90;;;;;;5092439;28;20050;-78
2023/11/25 01:31:10;;;;;;;24.35;18.98;;;15.20;96.90;;;;;;5098352;28;20093;-78
2023/11/25 01:33:40;;;;;;;25.17;20.15;;;15.30;97.00;;;;;;5096850;28;20032;-79
2023/11/25 01:36:09;;;;;;;27.73;19.25;;;15.20;97.00;;;;;;5093102;28;20393;-78
2023/11/25 01:38:36;;;;;;;23.63;19.63;;;15.20;96.90;;;;;;5093130;28;20051;-78
2023/11/25 01:41:02;;;;;;;28.20;19.42;;;15.20;97.10;;;;;;5093025;28;20040;-77
2023/11/25 01:43:28;;;;;;;28.17;20.85;;;15.20;97.00;;;;;;5092554;28;20124;-78
2023/11/25 01:45:58;;;;;;;28.35;19.80;;;15.20;96.90;;;;;;5092399;28;20020;-77
2023/11/25 01:48:26;;;;;;;27.42;20.30;;;15.10;96.90;;;;;;5080714;28;20040;-79
2023/11/25 01:50:52;;;;;;;25.95;19.50;;;15.10;97.10;;;;;;5072086;28;20435;-78
2023/11/25 01:53:19;;;;;;;26.70;20.00;;;15.10;97.10;;;;;;5071894;28;20115;-78
2023/11/25 01:55:46;;;;;;;26.10;19.30;;;15.20;97.20;;;;;;5072240;28;20071;-78
2023/11/25 01:58:15;;;;;;;28.05;18.95;;;15.20;97.20;;;;;;5072324;28;20025;-76
2023/11/25 02:00:43;;;;;;;27.42;18.23;;;15.10;97.20;;;;;;5072611;28;20499;-77
2023/11/25 02:03:09;;;;;;;27.73;18.85;;;15.20;97.20;;;;;;5075846;28;20131;-78
2023/11/25 02:05:36;;;;;;;24.95;18.88;;;15.20;97.20;;;;;;5074739;28;20036;-78
2023/11/25 02:08:02;;;;;;;27.50;18.55;;;15.20;97.20;;;;;;5076166;28;20036;-78
2023/11/25 02:10:28;;;;;;;27.25;18.52;;;15.20;97.10;;;;;;5076096;28;20040;-78
2023/11/25 02:12:54;;;;;;;26.15;18.95;;;15.20;97.10;;;;;;5076065;28;20047;-78
2023/11/25 02:15:20;;;;;;;26.23;19.55;;;15.20;97.00;;;;;;5075962;28;20461;-77
2023/11/25 02:17:46;;;;;;;25.60;18.60;;;15.10;97.10;;;;;;5075780;28;20040;-79
2023/11/25 02:20:16;;;;;;;28.98;19.67;;;15.10;97.00;;;;;;5075712;28;20037;-78
2023/11/25 02:22:48;;;;;;;31.15;18.85;;;15.10;97.00;;;;;;5075538;28;20029;-76
2023/11/25 02:25:15;;;;;;;28.70;19.33;;;15.10;96.80;;;;;;5075668;28;20025;-76
2023/11/25 02:27:40;;;;;;;28.80;19.33;;;15.10;97.10;;;;;;5075438;28;20035;-77
2023/11/25 02:30:08;;;;;;;25.38;17.83;;;15.20;97.00;;;;;;5075508;28;20111;-78
2023/11/25 02:32:33;;;;;;;27.83;18.38;;;15.20;97.00;;;;;;5075218;28;20498;-79
2023/11/25 02:35:00;;;;;;;26.27;17.65;;;15.10;97.10;;;;;;5075476;28;20045;-78
2023/11/25 02:37:26;;;;;;;27.88;17.50;;;15.20;97.10;;;;;;5075365;28;20051;-76
2023/11/25 02:39:52;;;;;;;25.98;17.95;;;15.20;97.00;;;;;;5075151;28;20154;-78
2023/11/25 02:42:17;;;;;;;24.80;17.52;;;15.10;97.00;;;;;;5075080;28;20064;-78
2023/11/25 02:44:44;;;;;;;24.83;18.15;;;15.10;97.00;;;;;;5074989;28;20049;-79
2023/11/25 02:47:09;;;;;;;27.17;16.63;;;15.20;97.00;;;;;;5074796;28;20497;-79
2023/11/25 02:49:35;;;;;;;24.20;17.10;;;15.20;96.90;;;;;;5074986;28;20082;-77
2023/11/25 02:52:01;;;;;;;21.63;16.08;;;15.20;97.00;;;;;;5075081;28;20486;-78
2023/11/25 02:54:26;;;;;;;25.15;16.92;;;15.20;97.00;;;;;;5074722;28;20036;-77
2023/11/25 02:56:52;;;;;;;24.48;16.67;;;15.20;97.00;;;;;;5074675;28;20111;-77
2023/11/25 02:59:18;;;;;;;26.23;18.13;;;15.20;97.00;;;;;;5076319;28;20379;-77
2023/11/25 03:01:52;;;;;;;27.80;18.17;;;15.20;97.00;;;;;;5082277;28;20056;-79
2023/11/25 03:04:23;;;;;;;23.55;17.05;;;15.20;96.70;;;;;;5075380;28;20127;-79
2023/11/25 03:06:51;;;;;;;25.00;17.35;;;15.20;97.00;;;;;;5075192;28;20024;-78
2023/11/25 03:09:17;;;;;;;26.20;17.38;;;15.30;97.00;;;;;;5074963;28;20041;-78
2023/11/25 03:11:43;;;;;;;25.60;17.38;;;15.20;97.00;;;;;;5074891;28;20029;-78
2023/11/25 03:14:09;;;;;;;23.27;16.92;;;15.20;97.10;;;;;;5074018;28;20461;-79
2023/11/25 03:16:35;;;;;;;26.00;18.02;;;15.20;96.90;;;;;;5056643;28;20121;-77
2023/11/25 03:19:01;;;;;;;24.48;18.48;;;15.20;97.00;;;;;;5074844;28;20032;-77
2023/11/25 03:21:28;;;;;;;21.42;17.52;;;15.20;96.90;;;;;;5074608;28;20506;-78
2023/11/25 03:23:54;;;;;;;21.38;15.65;;;15.10;97.10;;;;;;5074389;28;20567;-78
2023/11/25 03:26:21;;;;;;;24.50;16.60;;;15.10;97.10;;;;;;5074561;28;20024;-78
2023/11/25 03:28:46;;;;;;;24.73;16.85;;;15.10;96.90;;;;;;5056429;28;20044;-78
2023/11/25 03:31:12;;;;;;;26.63;16.73;;;15.10;96.90;;;;;;5074803;28;20024;-79
2023/11/25 03:33:38;;;;;;;22.92;14.57;;;15.00;96.90;;;;;;5074422;28;20444;-77
2023/11/25 03:36:04;;;;;;;21.80;13.32;;;15.00;96.90;;;;;;5074260;28;20032;-78
2023/11/25 03:38:30;;;;;;;22.08;12.73;;;14.90;96.80;;;;;;5074390;28;20123;-78
2023/11/25 03:40:56;;;;;;;23.60;12.43;;;14.90;96.90;;;;;;5074308;28;20108;-79
2023/11/25 03:43:24;;;;;;;28.27;13.57;;;14.80;96.90;;;;;;5074148;28;20076;-78
2023/11/25 03:45:50;;;;;;;23.98;14.90;;;14.80;96.90;;;;;;5074342;28;20033;-79
2023/11/25 03:48:16;;;;;;;22.63;12.95;;;14.80;96.60;;;;;;5074160;28;20040;-78
2023/11/25 03:50:43;;;;;;;26.98;13.20;;;14.80;96.70;;;;;;5073975;28;20029;-77
2023/11/25 03:53:11;;;;;;;21.48;11.80;;;14.70;96.50;;;;;;5073931;28;20033;-78
2023/11/25 03:55:36;;;;;;;20.90;11.13;;;14.70;96.50;;;;;;5073685;28;20028;-78
2023/11/25 03:58:04;;;;;;;20.30;10.38;;;14.50;96.20;;;;;;5073602;28;20028;-80
2023/11/25 04:00:30;;;;;;;16.35;10.95;;;14.40;96.20;;;;;;5073484;28;20033;-78
2023/11/25 04:02:56;;;;;;;27.42;12.18;;;14.30;96.20;;;;;;5073454;28;20052;-78
2023/11/25 04:05:22;;;;;;;20.70;11.07;;;14.30;96.00;;;;;;5055638;28;20028;-78
2023/11/25 04:07:48;;;;;;;18.48;10.55;;;14.20;95.90;;;;;;5073633;28;20115;-78
2023/11/25 04:10:15;;;;;;;18.35;10.88;;;14.10;95.90;;;;;;5073667;28;20524;-78
2023/11/25 04:12:42;;;;;;;17.95;10.50;;;14.00;95.80;;;;;;5073769;28;20111;-78
2023/11/25 04:15:12;;;;;;;18.00;10.90;;;14.00;95.90;;;;;;5073457;28;20037;-78
2023/11/25 04:17:39;;;;;;;23.30;11.00;;;14.00;95.80;;;;;;5073217;28;20029;-78
2023/11/25 04:20:17;;;;;;;21.88;11.05;;;14.00;95.80;;;;;;5073516;28;20033;-77
2023/11/25 04:22:45;;;;;;;15.25;8.88;;;13.90;95.60;;;;;;5073173;28;20051;-78
2023/11/25 04:25:12;;;;;;;15.10;8.85;;;13.90;95.50;;;;;;5073086;28;20055;-76
2023/11/25 04:27:42;;;;;;;17.08;9.20;;;13.80;95.40;;;;;;5073618;28;20363;-80
2023/11/25 04:30:09;;;;;;;16.13;8.07;;;13.90;95.30;;;;;;5076743;28;20065;-79
2023/11/25 04:32:36;;;;;;;12.65;7.72;;;13.80;94.90;;;;;;5079511;28;20397;-77
2023/11/25 04:35:06;;;;;;;15.13;7.43;;;13.80;94.60;;;;;;5074186;28;20040;-79
2023/11/25 04:37:32;;;;;;;14.60;7.05;;;13.80;94.30;;;;;;5073267;28;20167;-78
2023/11/25 04:39:58;;;;;;;14.95;7.60;;;13.80;94.40;;;;;;5073317;28;20037;-78
2023/11/25 04:42:24;;;;;;;9.20;5.68;;;13.80;94.20;;;;;;5073321;28;20082;-78
2023/11/25 04:44:50;;;;;;;14.45;6.07;;;13.70;93.80;;;;;;5073191;28;20053;-79
2023/11/25 04:47:15;;;;;;;11.90;5.70;;;13.60;93.80;;;;;;5072911;28;20029;-78
2023/11/25 04:49:42;;;;;;;11.75;5.80;;;13.60;93.60;;;;;;5073175;28;20036;-79
2023/11/25 04:52:08;;;;;;;11.48;5.00;;;13.50;93.40;;;;;;5072913;28;20500;-79
2023/11/25 04:54:33;;;;;;;7.88;5.03;;;13.50;93.00;;;;;;5072730;28;20040;-79
2023/11/25 04:57:01;;;;;;;10.75;4.88;;;13.40;92.60;;;;;;5072500;28;20029;-79
2023/11/25 04:59:27;;;;;;;9.27;4.82;;;13.40;92.90;;;;;;5073329;28;20036;-79
2023/11/25 05:01:53;;;;;;;8.70;3.90;;;13.40;92.50;;;;;;5055967;28;20377;-75
2023/11/25 05:04:20;;;;;;;7.40;4.35;;;13.30;92.20;;;;;;5073349;28;20141;-78
2023/11/25 05:06:46;;;;;;;7.88;4.00;;;13.30;91.90;;;;;;5072688;28;20111;-79
2023/11/25 05:09:17;;;;;;;6.88;4.25;;;13.20;91.50;;;;;;5054662;28;20079;-78
2023/11/25 05:11:43;;;;;;;8.30;4.25;;;13.20;91.40;;;;;;5072667;28;20501;-79
2023/11/25 05:14:08;;;;;;;8.40;3.83;;;13.10;91.30;;;;;;5072453;28;20036;-78
2023/11/25 05:16:34;;;;;;;6.43;3.80;;;13.10;91.30;;;;;;5054519;28;20044;-78
2023/11/25 05:19:00;;;;;;;9.30;3.63;;;13.00;91.20;;;;;;5072410;28;20040;-80
2023/11/25 05:21:25;;;;;;;13.05;6.85;;;13.00;91.00;;;;;;5072571;28;20505;-79
2023/11/25 05:23:51;;;;;;;12.35;4.10;;;13.00;91.00;;;;;;5072435;28;20087;-80
2023/11/25 05:26:17;;;;;;;9.13;4.07;;;12.90;90.60;;;;;;5072285;28;20037;-78
2023/11/25 05:28:43;;;;;;;6.90;3.85;;;12.80;90.70;;;;;;5072437;28;20178;-81
2023/11/25 05:31:09;;;;;;;9.90;4.30;;;12.70;90.60;;;;;;5072608;28;20025;-80
2023/11/25 05:33:35;;;;;;;8.30;4.40;;;12.70;90.30;;;;;;5072539;28;20158;-79
2023/11/25 05:36:01;;;;;;;9.90;4.18;;;12.60;90.30;;;;;;5071943;28;20025;-79
2023/11/25 05:38:28;;;;;;;8.48;4.28;;;12.60;90.30;;;;;;5072235;28;20536;-78
2023/11/25 05:40:54;;;;;;;7.78;4.32;;;12.60;90.50;;;;;;5054437;28;20032;-77
2023/11/25 05:43:21;;;;;;;7.93;4.70;;;12.50;90.40;;;;;;5072218;28;20036;-78
2023/11/25 05:45:46;;;;;;;7.53;4.20;;;12.50;90.20;;;;;;5072317;28;20060;-78
2023/11/25 05:48:12;;;;;;;9.43;4.70;;;12.40;89.80;;;;;;5072216;28;20087;-79
2023/11/25 05:50:39;;;;;;;9.20;4.60;;;12.30;89.80;;;;;;5072140;28;20371;-78
2023/11/25 05:53:06;;;;;;;6.75;4.68;;;12.30;89.70;;;;;;5072059;28;20033;-79
2023/11/25 05:55:31;;;;;;;8.75;4.70;;;12.30;89.70;;;;;;5071892;28;20032;-79
2023/11/25 05:57:57;;;;;;;7.63;4.97;;;12.20;89.00;;;;;;5071699;28;20040;-78
2023/11/25 06:00:23;;;;;;;10.02;4.78;;;12.10;88.90;;;;;;5071920;28;20494;-78
2023/11/25 06:02:49;;;;;;;8.60;5.28;;;12.10;89.00;;;;;;5072144;28;20064;-79
2023/11/25 06:05:15;;;;;;;10.23;5.25;;;12.10;88.00;;;;;;5072116;28;20029;-80
2023/11/25 06:07:41;;;;;;;8.40;5.32;;;12.10;88.00;;;;;;5072020;28;20500;-80
2023/11/25 06:10:09;;;;;;;10.80;6.40;;;12.10;86.90;;;;;;5071961;28;20107;-77
2023/11/25 06:12:35;;;;;;;15.50;6.47;;;12.00;86.50;;;;;;5071866;28;20048;-78
2023/11/25 06:15:01;;;;;;;10.43;6.57;;;12.00;86.40;;;;;;5071534;28;20036;-78
2023/11/25 06:17:27;;;;;;;16.85;8.07;;;12.00;85.80;;;;;;5071571;28;20477;-76
2023/11/25 06:19:53;;;;;;;13.60;9.02;;;11.90;84.40;;;;;;5071551;28;20447;-79
2023/11/25 06:22:22;;;;;;;13.07;9.07;;;11.90;83.80;;;;;;5071882;28;20039;-79
2023/11/25 06:24:47;;;;;;;14.38;9.30;;;11.80;83.50;;;;;;5071531;28;20043;-77
2023/11/25 06:27:14;;;;;;;16.25;10.40;;;11.80;83.60;;;;;;5071461;28;20037;-79
2023/11/25 06:29:40;;;;;;;15.60;10.88;;;11.80;83.40;;;;;;5071862;28;20033;-79
2023/11/25 06:32:06;;;;;;;16.13;10.80;;;11.70;83.60;;;;;;5071923;28;20036;-82
2023/11/25 06:34:35;;;;;;;16.65;11.27;;;11.70;82.70;;;;;;5072210;28;20033;-84
2023/11/25 06:37:01;;;;;;;19.38;12.38;;;11.70;81.90;;;;;;5071747;28;20397;-77
2023/11/25 06:39:31;;;;;;;17.88;11.77;;;11.80;81.60;;;;;;5071619;28;20032;-76
2023/11/25 06:41:58;;;;;;;17.77;11.13;;;12.10;80.90;;;;;;5053311;28;20029;-76
2023/11/25 06:44:24;;;;;;;12.63;9.25;;;12.20;79.80;;;;;;5071205;28;20155;-78
2023/11/25 06:46:50;;;;;;;13.90;10.05;;;12.40;78.50;;;;;;5071639;28;20024;-79
2023/11/25 06:49:16;;;;;;;13.38;8.30;;;12.50;77.90;;;;;;5073134;28;20090;-74
2023/11/25 06:51:42;;;;;;;10.98;8.43;;;12.70;76.70;;;;;;5074818;28;20035;-73
2023/11/25 06:54:09;;;;;;;9.60;6.88;;;12.90;76.20;;;;;;5074766;28;20044;-72
2023/11/25 06:56:35;;;;;;;11.15;5.80;;;13.10;74.50;;;;;;5056324;28;20033;-74
2023/11/25 06:59:05;;;;;;;10.95;5.35;;;13.20;73.50;;;;;;5065286;28;20037;-73
2023/11/25 07:01:32;;;;;;;7.00;4.50;;;13.30;72.50;;;;;;5063407;28;20505;-74
2023/11/25 07:03:57;;;;;;;9.10;3.17;;;13.40;71.00;;;;;;5069325;28;20049;-75
2023/11/25 07:06:23;;;;;;;7.80;2.25;;;13.60;70.30;;;;;;5060037;28;20574;-73
2023/11/25 07:08:50;;;;;;;5.88;1.90;;;13.70;68.90;;;;;;5053624;28;20116;-74
2023/11/25 07:11:16;;;;;;;10.20;1.90;;;13.80;67.70;;;;;;5054339;28;20037;-72
2023/11/25 07:13:42;;;;;;;4.80;1.40;;;13.80;66.80;;;;;;5054595;28;20483;-72
2023/11/25 07:16:11;;;;;;;1.65;1.10;;;13.90;65.30;;;;;;5054444;28;20395;-74
2023/11/25 07:18:42;;;;;;;3.63;0.90;;;14.10;65.20;;;;;;5054383;28;20041;-74
2023/11/25 07:21:11;;;;;;;3.47;0.90;;;14.00;63.50;;;;;;5054407;28;20029;-72
2023/11/25 07:23:38;;;;;;;2.60;0.75;;;13.70;63.10;;;;;;5054134;28;20144;-71
2023/11/25 07:26:05;;;;;;;3.35;0.60;;;12.80;62.40;;;;;;5054184;28;20029;-73
2023/11/25 07:28:32;;;;;;;1.38;0.60;;;12.20;64.30;;;;;;5054116;28;20033;-73
2023/11/25 07:30:59;;;;;;;0.50;0.40;;;11.90;64.10;;;;;;5036104;28;20033;-74
2023/11/25 07:33:25;;;;;;;2.97;0.60;;;11.70;64.60;;;;;;5053848;28;20033;-74
2023/11/25 07:35:51;;;;;;;0.40;0.40;;;11.60;64.90;;;;;;5054138;28;20036;-73
2023/11/25 07:38:17;;;;;;;2.90;0.65;;;11.50;65.00;;;;;;5072075;28;20106;-74
2023/11/25 07:40:43;;;;;;;1.55;0.73;;;11.40;64.60;;;;;;5073798;28;20056;-72
2023/11/25 07:43:08;;;;;;;1.17;0.47;;;11.40;64.20;;;;;;5073896;28;20048;-73
2023/11/25 07:45:34;;;;;;;1.95;0.50;;;11.30;64.00;;;;;;5073810;28;20043;-73
2023/11/25 07:48:00;;;;;;;4.47;0.60;;;11.40;63.60;;;;;;5073749;28;20071;-74
2023/11/25 07:50:26;;;;;;;2.08;0.70;;;11.40;63.10;;;;;;5073870;28;20112;-74
2023/11/25 07:52:52;;;;;;;0.82;0.60;;;11.40;62.40;;;;;;5073857;28;20501;-74
2023/11/25 07:55:18;;;;;;;1.10;0.57;;;11.50;61.10;;;;;;5073807;28;20036;-75
2023/11/25 07:57:44;;;;;;;2.95;1.33;;;11.50;60.50;;;;;;5073969;28;20138;-74
2023/11/25 08:00:15;;;;;;;1.38;0.55;;;11.60;60.60;;;;;;5073604;28;20074;-75
2023/11/25 08:02:42;;;;;;;2.13;0.50;;;11.60;60.50;;;;;;5073357;28;20417;-75
2023/11/25 08:05:08;;;;;;;1.90;0.70;;;11.70;59.30;;;;;;5073440;28;20541;-76
2023/11/25 08:07:34;;;;;;;3.03;0.60;;;11.70;59.60;;;;;;5073444;28;20031;-74
2023/11/25 08:10:02;;;;;;;5.57;0.60;;;11.80;58.90;;;;;;5073536;28;20028;-73
2023/11/25 08:12:28;;;;;;;3.40;0.70;;;11.80;59.10;;;;;;5073754;28;20094;-75
2023/11/25 08:14:55;;;;;;;3.72;0.70;;;11.90;59.20;;;;;;5073621;28;20482;-74
2023/11/25 08:17:21;;;;;;;3.40;0.65;;;11.90;58.80;;;;;;5073584;28;20037;-73
2023/11/25 08:19:46;;;;;;;4.20;0.63;;;11.90;58.70;;;;;;5073641;28;20040;-74
2023/11/25 08:22:12;;;;;;;0.88;0.55;;;12.00;58.40;;;;;;5073244;28;20039;-74
2023/11/25 08:24:38;;;;;;;3.42;0.70;;;12.00;56.50;;;;;;5073324;28;20045;-75
2023/11/25 08:27:04;;;;;;;4.05;0.80;;;12.00;57.10;;;;;;5073698;28;20072;-75
2023/11/25 08:29:30;;;;;;;3.75;0.82;;;12.10;57.00;;;;;;5073171;28;20032;-75
2023/11/25 08:31:56;;;;;;;1.33;0.65;;;12.10;56.60;;;;;;5073040;28;20078;-74
2023/11/25 08:34:21;;;;;;;4.65;1.13;;;12.20;55.70;;;;;;5073390;28;20106;-74
2023/11/25 08:36:54;;;;;;;2.90;0.95;;;12.20;54.50;;;;;;5073050;28;20086;-75
2023/11/25 08:39:25;;;;;;;1.63;0.60;;;12.20;54.80;;;;;;5072942;28;20059;-76
2023/11/25 08:41:58;;;;;;;1.52;0.80;;;12.20;52.80;;;;;;5073357;28;20037;-75
2023/11/25 08:44:27;;;;;;;1.40;0.60;;;12.30;54.10;;;;;;5073162;28;20041;-73
2023/11/25 08:46:53;;;;;;;2.90;0.60;;;12.30;53.20;;;;;;5072948;28;20032;-75
2023/11/25 08:49:21;;;;;;;1.27;0.70;;;12.30;53.20;;;;;;5072969;28;20128;-74
2023/11/25 08:51:49;;;;;;;2.67;0.60;;;12.40;53.20;;;;;;5072791;28;20490;-75
2023/11/25 08:54:20;;;;;;;2.50;0.77;;;12.40;52.70;;;;;;5072670;28;20029;-75
2023/11/25 08:56:47;;;;;;;1.23;0.55;;;12.40;52.70;;;;;;5072606;28;20094;-75
2023/11/25 08:59:21;;;;;;;3.15;0.98;;;12.40;51.60;;;;;;5072729;28;20120;-75
2023/11/25 09:01:47;;;;;;;2.05;0.70;;;12.40;51.70;;;;;;5072697;28;20069;-73
2023/11/25 09:04:19;;;;;;;4.03;1.20;;;12.40;51.30;;;;;;5072329;28;20555;-74
2023/11/25 09:06:46;;;;;;;0.75;0.50;;;12.40;52.00;;;;;;5072543;28;20035;-74
2023/11/25 09:09:14;;;;;;;4.13;0.73;;;12.30;51.90;;;;;;5072399;28;20043;-75
2023/11/25 09:11:40;;;;;;;1.73;0.70;;;12.30;52.20;;;;;;5071685;28;20025;-74
2023/11/25 09:14:06;;;;;;;1.38;0.68;;;12.30;52.00;;;;;;5075018;28;20550;-74
2023/11/25 09:16:32;;;;;;;0.80;0.55;;;12.30;51.80;;;;;;5092563;28;20051;-75
2023/11/25 09:18:58;;;;;;;1.20;0.90;;;12.30;51.80;;;;;;5092264;28;20362;-80
2023/11/25 09:21:24;;;;;;;7.22;0.88;;;12.40;51.80;;;;;;5092860;28;20032;-76
2023/11/25 09:23:49;;;;;;;3.13;0.60;;;12.40;50.60;;;;;;5092559;28;20047;-79
2023/11/25 09:26:16;;;;;;;3.35;1.00;;;12.40;50.00;;;;;;5092575;28;20028;-79
2023/11/25 09:28:42;;;;;;;4.43;0.77;;;12.50;49.60;;;;;;5092783;28;20239;-79
2023/11/25 09:31:08;;;;;;;1.02;0.50;;;12.50;50.10;;;;;;5093266;28;20540;-81
2023/11/25 09:33:33;;;;;;;1.20;0.60;;;12.50;50.00;;;;;;5093278;28;20097;-78
2023/11/25 09:35:59;;;;;;;5.07;1.00;;;12.60;49.10;;;;;;5092326;28;20036;-81
2023/11/25 09:38:26;;;;;;;2.90;0.60;;;12.60;48.80;;;;;;5092352;28;20107;-78
2023/11/25 09:40:52;;;;;;;4.38;0.82;;;12.60;47.10;;;;;;5092783;28;20111;-80
2023/11/25 09:43:21;;;;;;;2.72;0.70;;;12.60;47.40;;;;;;5092659;28;20047;-79
2023/11/25 09:45:50;;;;;;;2.95;0.80;;;12.70;47.50;;;;;;5091946;28;20028;-79
2023/11/25 09:48:17;;;;;;;2.60;0.82;;;12.80;47.20;;;;;;5092404;28;20032;-78
2023/11/25 09:50:42;;;;;;;1.25;0.60;;;12.80;46.30;;;;;;5091947;28;20024;-76
2023/11/25 09:53:18;;;;;;;3.53;1.00;;;12.80;46.30;;;;;;5092134;28;20397;-77
2023/11/25 09:56:11;;;;;;;1.73;0.80;;;12.90;46.10;;;;;;5092421;28;20032;-77
2023/11/25 09:58:37;;;;;;;6.93;0.82;;;12.90;47.00;;;;;;5092420;28;20496;-78
2023/11/25 10:01:06;;;;;;;4.07;0.88;;;13.00;45.90;;;;;;5092456;28;20105;-77
2023/11/25 10:03:38;;;;;;;4.95;0.82;;;13.00;45.80;;;;;;5092260;28;20611;-79
2023/11/25 10:06:04;;;;;;;8.52;1.10;;;12.90;43.90;;;;;;5092148;28;20055;-80
2023/11/25 10:08:34;;;;;;;2.97;0.90;;;12.80;44.20;;;;;;5092409;28;20032;-79
2023/11/25 10:11:05;;;;;;;1.35;0.80;;;12.80;43.70;;;;;;5092223;28;20381;-78
2023/11/25 10:13:42;;;;;;;2.28;0.85;;;12.80;43.30;;;;;;5092522;28;20048;-80
2023/11/25 10:16:09;;;;;;;7.85;1.20;;;12.70;43.10;;;;;;5092319;28;20021;-80
2023/11/25 10:18:39;;;;;;;3.55;0.80;;;12.70;43.60;;;;;;5095246;28;20054;-79
2023/11/25 10:21:06;;;;;;;2.47;0.80;;;12.70;43.10;;;;;;5097493;28;20093;-79
2023/11/25 10:23:33;;;;;;;2.88;1.10;;;12.60;43.30;;;;;;5095172;28;20050;-80
2023/11/25 10:26:03;;;;;;;2.83;1.10;;;12.50;43.10;;;;;;5096160;28;20043;-82
2023/11/25 10:28:32;;;;;;;2.10;0.95;;;12.40;43.30;;;;;;5095934;28;20032;-80
2023/11/25 10:31:00;;;;;;;3.65;0.95;;;12.30;43.10;;;;;;5096051;28;20143;-81
2023/11/25 10:33:29;;;;;;;4.07;1.02;;;12.30;42.80;;;;;;5094772;28;20040;-80
2023/11/25 10:35:56;;;;;;;6.05;1.00;;;12.30;43.10;;;;;;5096328;28;20033;-80
2023/11/25 10:38:27;;;;;;;2.65;0.70;;;12.20;42.40;;;;;;5100690;28;20074;-80
2023/11/25 10:41:00;;;;;;;4.55;0.90;;;12.20;42.20;;;;;;5099074;28;20450;-79
2023/11/25 10:43:27;;;;;;;;;;;12.30;42.20;;;;;;5095104;28;20091;-80
2023/11/25 10:46:08;;;;;;;3.33;0.80;;;12.40;41.90;;;;;;5095685;28;19955;-81
2023/11/25 10:48:37;;;;;;;2.65;1.08;;;12.50;43.80;;;;;;5094489;28;20055;-79
2023/11/25 10:51:03;;;;;;;1.80;0.88;;;12.50;43.00;;;;;;5095935;28;20028;-80
2023/11/25 10:53:30;;;;;;;3.03;1.23;;;12.40;43.10;;;;;;5094737;28;20087;-79
2023/11/25 10:56:00;;;;;;;2.20;1.00;;;12.30;42.50;;;;;;5099052;28;20094;-80
2023/11/25 10:58:27;;;;;;;3.38;1.48;;;12.30;42.70;;;;;;5096166;28;20083;-82
2023/11/25 11:00:54;;;;;;;11.63;2.15;;;12.40;42.80;;;;;;5095824;28;20024;-80
2023/11/25 11:03:53;;;;;;;7.78;1.48;;;12.50;43.10;;;;;;5094025;28;20092;-80
2023/11/25 11:06:23;;;;;;;7.00;1.67;;;12.60;44.90;;;;;;5068473;28;20024;-79
2023/11/25 11:08:52;;;;;;;3.88;1.58;;;12.70;42.80;;;;;;5077291;28;20485;-80
2023/11/25 11:11:31;;;;;;;6.18;2.15;;;12.70;43.40;;;;;;5095483;28;20371;-79
2023/11/25 11:14:09;;;;;;;3.05;1.67;;;12.70;41.90;;;;;;5095239;28;20113;-80
2023/11/25 11:17:12;;;;;;;4.35;2.30;;;12.70;44.10;;;;;;5095248;28;20075;-78
2023/11/25 11:19:42;;;;;;;5.60;1.90;;;12.70;41.70;;;;;;5095325;28;20032;-81
2023/11/25 11:22:12;;;;;;;8.02;2.88;;;12.80;42.60;;;;;;5095416;28;20121;-82
2023/11/25 11:25:12;;;;;;;7.15;3.97;;;12.80;41.80;;;;;;5095284;28;20044;-82
2023/11/25 11:27:55;;;;;;;11.45;4.03;;;12.70;42.90;;;;;;5095004;28;20116;-80
2023/11/25 11:30:58;;;;;;;7.07;3.83;;;12.70;43.20;;;;;;5094609;28;20032;-79
2023/11/25 11:33:25;;;;;;;6.63;3.90;;;12.70;42.50;;;;;;5094940;28;20064;-80
2023/11/25 11:35:50;;;;;;;6.20;3.42;;;12.70;42.50;;;;;;5093993;28;20039;-80
2023/11/25 11:38:26;;;;;;;7.03;3.83;;;12.70;43.00;;;;;;5094840;28;20056;-81
2023/11/25 11:40:57;;;;;;;7.70;3.38;;;12.70;42.10;;;;;;5094645;28;20385;-81
2023/11/25 11:43:24;;;;;;;7.65;3.70;;;12.70;42.20;;;;;;5095080;28;20516;-81
2023/11/25 11:45:50;;;;;;;7.80;3.60;;;12.80;42.60;;;;;;5095182;28;20477;-80
2023/11/25 11:48:16;;;;;;;6.05;3.70;;;12.70;42.20;;;;;;5095269;28;20035;-82
2023/11/25 11:50:44;;;;;;;6.75;3.40;;;12.70;42.30;;;;;;5093673;28;20489;-78
2023/11/25 11:53:13;;;;;;;8.88;3.17;;;12.60;42.50;;;;;;5096853;28;20082;-81
2023/11/25 11:55:58;;;;;;;7.40;3.80;;;12.60;44.10;;;;;;5095863;28;20081;-83
2023/11/25 11:58:26;;;;;;;8.77;3.72;;;12.60;42.10;;;;;;5092469;28;20036;-82
2023/11/25 12:01:01;;;;;;;5.97;3.60;;;12.60;42.60;;;;;;5097738;28;20039;-83
2023/11/25 12:03:29;;;;;;;6.00;3.80;;;12.50;42.90;;;;;;5094895;28;20040;-82
2023/11/25 12:05:55;;;;;;;6.65;3.80;;;12.50;42.00;;;;;;5095099;28;20020;-80
2023/11/25 12:08:22;;;;;;;14.80;3.40;;;12.50;42.60;;;;;;5094683;28;20036;-80
2023/11/25 12:10:48;;;;;;;5.60;3.10;;;12.50;42.50;;;;;;5094122;28;20032;-81
2023/11/25 12:13:31;;;;;;;8.20;3.35;;;12.50;42.20;;;;;;5094265;28;20028;-79
2023/11/25 12:15:59;;;;;;;7.80;3.22;;;12.60;42.40;;;;;;5094186;28;20179;-79
2023/11/25 12:18:35;;;;;;;5.88;3.60;;;12.50;42.50;;;;;;5092568;28;20050;-78
2023/11/25 12:21:04;;;;;;;7.30;3.13;;;12.60;42.40;;;;;;5094143;28;20398;-80
2023/11/25 12:23:34;;;;;;;5.50;3.50;;;12.70;43.20;;;;;;5093703;28;20115;-80
2023/11/25 12:26:01;;;;;;;5.82;3.50;;;12.70;43.00;;;;;;5094051;28;20032;-80
2023/11/25 12:28:28;;;;;;;7.25;3.40;;;12.80;43.30;;;;;;5094794;28;20035;-80
2023/11/25 12:30:53;;;;;;;7.72;3.63;;;12.70;43.00;;;;;;5092752;28;20032;-80
2023/11/25 12:33:20;;;;;;;8.38;3.67;;;12.60;43.00;;;;;;5093901;28;20112;-78
2023/11/25 12:35:47;;;;;;;6.05;3.63;;;12.60;43.00;;;;;;5093520;28;20460;-80
2023/11/25 12:38:16;;;;;;;6.18;3.22;;;12.60;44.80;;;;;;5093903;28;20047;-81
2023/11/25 12:40:53;;;;;;;5.55;3.08;;;12.80;44.10;;;;;;5093896;28;20044;-80